createdAt,value
2019-05-23T00:02:20.918Z,10.78
2019-05-23T00:05:27.995Z,10.67
2019-05-23T00:08:24.322Z,10.81
2019-05-23T00:11:03.647Z,10.82
2019-05-23T00:13:57.871Z,10.68
2019-05-23T00:16:28.782Z,10.54
2019-05-23T00:19:00.466Z,10.59
2019-05-23T00:21:33.043Z,10.58
2019-05-23T00:24:04.014Z,10.64
2019-05-23T00:26:34.551Z,10.64
2019-05-23T00:29:10.668Z,10.62
2019-05-23T00:31:46.052Z,10.59
2019-05-23T00:34:17.973Z,10.54
2019-05-23T00:36:48.453Z,10.51
2019-05-23T00:39:19.883Z,10.50
2019-05-23T00:41:50.745Z,10.43
2019-05-23T00:44:20.997Z,10.40
2019-05-23T00:46:52.659Z,10.31
2019-05-23T00:49:24.667Z,10.31
2019-05-23T00:51:55.704Z,10.24
2019-05-23T00:54:30.063Z,10.24
2019-05-23T00:57:01.019Z,10.27
2019-05-23T00:59:31.489Z,10.19
2019-05-23T01:02:02.512Z,10.15
2019-05-23T01:04:33.756Z,10.17
2019-05-23T01:07:04.889Z,10.17
2019-05-23T01:09:36.941Z,9.93
2019-05-23T01:12:08.645Z,10.07
2019-05-23T01:14:39.383Z,9.99
2019-05-23T01:17:11.179Z,10.00
2019-05-23T01:19:42.326Z,9.97
2019-05-23T01:22:14.163Z,9.94
2019-05-23T01:24:46.882Z,9.84
2019-05-23T01:27:17.631Z,9.75
2019-05-23T01:29:50.363Z,9.69
2019-05-23T01:32:42.493Z,9.78
2019-05-23T01:35:17.499Z,9.76
2019-05-23T01:37:48.429Z,9.58
2019-05-23T01:40:19.956Z,9.69
2019-05-23T01:42:51.436Z,9.63
2019-05-23T01:45:22.783Z,9.59
2019-05-23T01:47:53.340Z,9.62
2019-05-23T01:50:26.041Z,9.59
2019-05-23T01:52:57.866Z,9.57
2019-05-23T01:55:28.166Z,9.52
2019-05-23T01:57:58.329Z,9.53
2019-05-23T02:00:31.493Z,9.45
2019-05-23T02:03:02.038Z,9.45
2019-05-23T02:05:33.425Z,9.45
2019-05-23T02:08:04.021Z,9.41
2019-05-23T02:10:34.560Z,9.44
2019-05-23T02:13:04.695Z,9.30
2019-05-23T02:15:34.972Z,9.18
2019-05-23T02:18:06.306Z,9.25
2019-05-23T02:20:37.233Z,9.18
2019-05-23T02:23:09.605Z,9.24
2019-05-23T02:25:42.813Z,9.22
2019-05-23T02:28:13.919Z,9.19
2019-05-23T02:30:44.225Z,9.22
2019-05-23T02:33:15.071Z,9.17
2019-05-23T02:35:45.184Z,9.06
2019-05-23T02:38:29.229Z,9.05
2019-05-23T02:41:22.391Z,9.04
2019-05-23T02:43:56.859Z,9.04
2019-05-23T02:46:34.517Z,9.07
2019-05-23T02:49:07.490Z,9.03
2019-05-23T02:51:39.519Z,8.97
2019-05-23T02:54:13.968Z,8.99
2019-05-23T02:56:51.773Z,8.93
2019-05-23T02:59:51.671Z,8.95
2019-05-23T03:02:56.245Z,8.89
2019-05-23T03:05:31.270Z,8.87
2019-05-23T03:08:08.683Z,8.83
2019-05-23T03:10:57.200Z,8.82
2019-05-23T03:13:34.318Z,8.83
2019-05-23T03:16:05.895Z,8.77
2019-05-23T03:18:41.524Z,8.73
2019-05-23T03:21:15.542Z,8.61
2019-05-23T03:23:49.837Z,8.69
2019-05-23T03:26:53.831Z,8.61
2019-05-23T03:29:23.952Z,8.57
2019-05-23T03:32:00.255Z,8.62
2019-05-23T03:34:33.063Z,8.62
2019-05-23T03:37:04.954Z,8.62
2019-05-23T03:39:35.214Z,8.60
2019-05-23T03:42:05.433Z,8.60
2019-05-23T03:44:36.321Z,8.63
2019-05-23T03:47:08.178Z,8.63
2019-05-23T03:49:42.440Z,8.62
2019-05-23T03:52:19.125Z,8.65
2019-05-23T03:54:54.456Z,8.63
2019-05-23T03:57:26.083Z,8.64
2019-05-23T04:00:01.828Z,8.53
2019-05-23T04:02:35.040Z,8.53
2019-05-23T04:05:08.067Z,8.53
2019-05-23T04:07:38.784Z,8.64
2019-05-23T04:10:11.090Z,8.67
2019-05-23T04:12:41.269Z,8.63
2019-05-23T04:15:12.753Z,8.73
2019-05-23T04:17:46.271Z,8.77
2019-05-23T04:20:18.225Z,8.83
2019-05-23T04:22:48.507Z,9.00
2019-05-23T04:25:19.408Z,9.05
2019-05-23T04:27:52.883Z,9.05
2019-05-23T04:30:23.154Z,9.03
2019-05-23T04:32:58.019Z,9.04
2019-05-23T04:35:29.728Z,9.08
2019-05-23T04:37:59.893Z,9.10
2019-05-23T04:40:33.469Z,9.16
2019-05-23T04:43:07.454Z,9.20
2019-05-23T04:45:38.344Z,9.25
2019-05-23T04:48:08.873Z,9.30
2019-05-23T04:50:39.112Z,9.38
2019-05-23T04:53:09.698Z,9.43
2019-05-23T04:55:40.171Z,9.47
2019-05-23T04:58:10.905Z,9.52
2019-05-23T05:00:41.290Z,9.58
2019-05-23T05:03:12.946Z,9.67
2019-05-23T05:05:44.245Z,9.79
2019-05-23T05:08:14.438Z,9.91
2019-05-23T05:10:45.075Z,10.00
2019-05-23T05:13:15.273Z,10.12
2019-05-23T05:15:45.619Z,10.21
2019-05-23T05:18:16.567Z,10.32
2019-05-23T05:20:47.572Z,10.40
2019-05-23T05:23:17.708Z,10.53
2019-05-23T05:25:47.798Z,10.62
2019-05-23T05:28:17.893Z,10.71
2019-05-23T05:30:48.255Z,10.77
2019-05-23T05:33:18.715Z,10.84
2019-05-23T05:35:48.886Z,10.91
2019-05-23T05:38:19.628Z,10.96
2019-05-23T05:40:56.514Z,11.00
2019-05-23T05:43:21.782Z,11.05
2019-05-23T05:45:52.594Z,11.10
2019-05-23T05:48:23.019Z,11.18
2019-05-23T05:50:53.965Z,11.25
2019-05-23T05:53:24.589Z,11.34
2019-05-23T05:55:54.853Z,11.41
2019-05-23T05:58:25.107Z,11.50
2019-05-23T06:01:08.950Z,11.56
2019-05-23T06:03:39.578Z,11.54
2019-05-23T06:06:27.004Z,11.58
2019-05-23T06:08:59.837Z,11.63
2019-05-23T06:11:49.672Z,11.67
2019-05-23T06:14:19.823Z,11.72
2019-05-23T06:16:51.894Z,11.79
2019-05-23T06:19:22.363Z,11.81
2019-05-23T06:21:52.520Z,11.85
2019-05-23T06:24:39.573Z,11.85
2019-05-23T06:26:55.249Z,11.87
2019-05-23T06:29:25.879Z,11.91
2019-05-23T06:31:56.973Z,11.95
2019-05-23T06:34:27.548Z,12.00
2019-05-23T06:36:58.786Z,12.05
2019-05-23T06:39:29.038Z,12.06
2019-05-23T06:41:59.203Z,12.10
2019-05-23T06:44:29.572Z,12.14
2019-05-23T06:46:59.825Z,12.18
2019-05-23T06:49:30.018Z,12.25
2019-05-23T06:52:00.391Z,12.28
2019-05-23T06:54:30.538Z,12.35
2019-05-23T06:57:00.818Z,12.40
2019-05-23T06:59:30.956Z,12.52
2019-05-23T07:02:03.083Z,12.56
2019-05-23T07:04:35.809Z,12.67
2019-05-23T07:07:07.439Z,12.74
2019-05-23T07:09:40.806Z,12.81
2019-05-23T07:12:12.724Z,12.83
2019-05-23T07:14:46.155Z,12.87
2019-05-23T07:17:19.552Z,12.99
2019-05-23T07:19:49.649Z,13.06
2019-05-23T07:22:20.987Z,13.12
2019-05-23T07:24:58.093Z,13.15
2019-05-23T07:27:25.603Z,13.20
2019-05-23T07:29:55.776Z,13.30
2019-05-23T07:32:25.926Z,13.38
2019-05-23T07:34:56.087Z,13.41
2019-05-23T07:37:26.210Z,13.50
2019-05-23T07:39:56.333Z,13.55
2019-05-23T07:42:27.110Z,13.60
2019-05-23T07:44:58.619Z,13.66
2019-05-23T07:47:28.816Z,13.79
2019-05-23T07:49:59.004Z,13.78
2019-05-23T07:52:29.486Z,13.85
2019-05-23T07:55:07.639Z,13.91
2019-05-23T07:57:39.225Z,13.92
2019-05-23T08:00:17.999Z,14.00
2019-05-23T08:02:50.372Z,14.09
2019-05-23T08:05:22.964Z,14.19
2019-05-23T08:07:54.055Z,14.24
2019-05-23T08:10:33.646Z,14.37
2019-05-23T08:12:56.196Z,14.42
2019-05-23T08:15:26.490Z,14.46
2019-05-23T08:17:57.004Z,14.54
2019-05-23T08:20:28.080Z,14.61
2019-05-23T08:22:58.324Z,14.71
2019-05-23T08:25:28.552Z,14.81
2019-05-23T08:27:59.019Z,14.95
2019-05-23T08:30:29.160Z,15.03
2019-05-23T08:32:59.361Z,15.14
2019-05-23T08:35:29.824Z,15.22
2019-05-23T08:38:00.190Z,15.26
2019-05-23T08:40:33.394Z,15.31
2019-05-23T08:43:04.429Z,15.53
2019-05-23T08:45:34.577Z,15.69
2019-05-23T08:48:05.032Z,15.85
2019-05-23T08:50:35.275Z,15.88
2019-05-23T08:53:07.924Z,16.03
2019-05-23T08:55:38.112Z,16.10
2019-05-23T08:58:10.280Z,16.16
2019-05-23T09:00:41.487Z,16.31
2019-05-23T09:03:12.896Z,16.33
2019-05-23T09:05:44.868Z,16.47
2019-05-23T09:08:17.025Z,16.46
2019-05-23T09:10:47.547Z,16.38
2019-05-23T09:13:18.318Z,16.45
2019-05-23T09:15:52.839Z,16.41
2019-05-23T09:18:20.541Z,16.45
2019-05-23T09:20:53.998Z,16.56
2019-05-23T09:23:24.228Z,16.71
2019-05-23T09:25:54.753Z,16.75
2019-05-23T09:28:25.213Z,16.77
2019-05-23T09:30:55.676Z,16.85
2019-05-23T09:33:25.831Z,16.88
2019-05-23T09:35:56.054Z,17.08
2019-05-23T09:38:26.377Z,17.31
2019-05-23T09:40:56.506Z,17.41
2019-05-23T09:43:27.157Z,17.51
2019-05-23T09:45:58.198Z,17.53
2019-05-23T09:48:28.749Z,17.71
2019-05-23T09:50:58.975Z,17.70
2019-05-23T09:53:29.280Z,17.61
2019-05-23T09:56:00.884Z,17.55
2019-05-23T09:58:31.096Z,17.56
2019-05-23T10:01:01.336Z,17.45
2019-05-23T10:03:31.908Z,17.34
2019-05-23T10:06:02.033Z,17.32
2019-05-23T10:08:32.341Z,17.26
2019-05-23T10:11:03.891Z,17.28
2019-05-23T10:13:39.054Z,17.29
2019-05-23T10:16:08.516Z,17.39
2019-05-23T10:18:39.926Z,17.55
2019-05-23T10:21:10.345Z,17.72
2019-05-23T10:23:40.484Z,17.59
2019-05-23T10:26:11.383Z,17.66
2019-05-23T10:28:41.791Z,17.87
2019-05-23T10:31:12.389Z,17.92
2019-05-23T10:33:42.903Z,17.96
2019-05-23T10:36:13.383Z,18.04
2019-05-23T10:38:46.858Z,18.14
2019-05-23T10:41:17.304Z,18.23
2019-05-23T10:43:47.475Z,18.41
2019-05-23T10:46:17.578Z,18.32
2019-05-23T10:48:48.052Z,18.24
2019-05-23T10:51:18.372Z,18.19
2019-05-23T10:53:48.534Z,18.14
2019-05-23T10:56:20.627Z,18.26
2019-05-23T10:58:50.679Z,18.31
2019-05-23T11:01:21.518Z,18.39
2019-05-23T11:03:51.816Z,18.37
2019-05-23T11:06:22.245Z,18.43
2019-05-23T11:08:53.435Z,18.47
2019-05-23T11:11:24.388Z,18.29
2019-05-23T11:13:55.293Z,18.14
2019-05-23T11:16:25.670Z,18.20
2019-05-23T11:18:56.023Z,18.36
2019-05-23T11:21:26.298Z,18.55
2019-05-23T11:23:57.481Z,18.50
2019-05-23T11:26:28.790Z,18.61
2019-05-23T11:28:59.018Z,18.66
2019-05-23T11:31:29.578Z,18.67
2019-05-23T11:34:00.889Z,18.71
2019-05-23T11:36:36.015Z,18.79
2019-05-23T11:39:06.666Z,18.79
2019-05-23T11:41:37.422Z,18.81
2019-05-23T11:44:08.550Z,18.78
2019-05-23T11:46:40.054Z,18.85
2019-05-23T11:49:10.398Z,18.93
2019-05-23T11:51:40.771Z,18.96
2019-05-23T11:54:11.290Z,19.02
2019-05-23T11:56:42.431Z,19.08
2019-05-23T11:59:12.591Z,19.12
2019-05-23T12:01:59.893Z,19.21
2019-05-23T12:04:39.676Z,19.32
2019-05-23T12:07:20.087Z,19.40
2019-05-23T12:09:50.609Z,19.37
2019-05-23T12:12:20.969Z,19.16
2019-05-23T12:14:51.184Z,19.07
2019-05-23T12:17:21.994Z,19.22
2019-05-23T12:19:52.150Z,19.34
2019-05-23T12:22:23.018Z,19.56
2019-05-23T12:24:53.157Z,19.58
2019-05-23T12:27:23.281Z,19.62
2019-05-23T12:29:53.600Z,19.76
2019-05-23T12:32:24.200Z,19.79
2019-05-23T12:35:09.764Z,19.90
2019-05-23T12:37:26.500Z,20.00
2019-05-23T12:39:57.154Z,20.09
2019-05-23T12:42:27.467Z,20.15
2019-05-23T12:44:57.673Z,20.12
2019-05-23T12:47:39.849Z,20.07
2019-05-23T12:50:13.966Z,20.03
2019-05-23T12:52:44.161Z,20.08
2019-05-23T12:55:14.851Z,20.24
2019-05-23T12:57:45.241Z,20.39
2019-05-23T13:00:35.471Z,20.56
2019-05-23T13:03:06.895Z,20.55
2019-05-23T13:05:38.222Z,20.45
2019-05-23T13:08:08.679Z,20.40
2019-05-23T13:10:39.384Z,20.49
2019-05-23T13:13:10.637Z,20.61
2019-05-23T13:15:42.233Z,20.68
2019-05-23T13:18:12.645Z,20.63
2019-05-23T13:20:43.717Z,20.71
2019-05-23T13:23:20.654Z,20.75
2019-05-23T13:25:46.361Z,20.81
2019-05-23T13:28:16.782Z,20.79
2019-05-23T13:30:47.482Z,20.90
2019-05-23T13:33:17.922Z,20.90
2019-05-23T13:35:48.249Z,20.95
2019-05-23T13:38:21.167Z,21.00
2019-05-23T13:40:51.427Z,21.06
2019-05-23T13:43:21.655Z,21.26
2019-05-23T13:45:51.793Z,21.33
2019-05-23T13:48:22.036Z,21.39
2019-05-23T13:50:52.368Z,21.55
2019-05-23T13:53:24.739Z,21.87
2019-05-23T13:55:55.423Z,21.84
2019-05-23T13:58:25.877Z,22.00
2019-05-23T14:00:57.331Z,22.28
2019-05-23T14:03:28.930Z,22.39
2019-05-23T14:05:59.493Z,22.48
2019-05-23T14:08:30.264Z,22.26
2019-05-23T14:11:00.709Z,22.32
2019-05-23T14:13:32.030Z,22.48
2019-05-23T14:16:02.691Z,22.80
2019-05-23T14:18:34.598Z,22.92
2019-05-23T14:21:05.027Z,23.29
2019-05-23T14:23:35.283Z,23.47
2019-05-23T14:26:06.256Z,23.56
2019-05-23T14:28:36.495Z,23.86
2019-05-23T14:31:17.924Z,23.84
2019-05-23T14:34:07.218Z,24.03
2019-05-23T14:36:56.470Z,24.14
2019-05-23T14:39:38.587Z,23.94
2019-05-23T14:42:24.677Z,24.08
2019-05-23T14:44:55.086Z,23.86
2019-05-23T14:47:44.694Z,24.01
2019-05-23T14:50:31.170Z,24.10
2019-05-23T14:53:03.804Z,23.80
2019-05-23T14:55:34.310Z,24.04
2019-05-23T14:58:05.235Z,24.16
2019-05-23T15:00:36.052Z,24.28
2019-05-23T15:03:06.898Z,24.28
2019-05-23T15:05:37.829Z,24.35
2019-05-23T15:08:08.083Z,24.54
2019-05-23T15:10:38.539Z,24.30
2019-05-23T15:13:08.912Z,24.43
2019-05-23T15:15:39.181Z,24.61
2019-05-23T15:18:11.428Z,24.74
2019-05-23T15:20:44.149Z,24.63
2019-05-23T15:23:14.346Z,23.98
2019-05-23T15:25:44.515Z,23.98
2019-05-23T15:28:14.786Z,24.13
2019-05-23T15:30:45.152Z,24.01
2019-05-23T15:33:15.595Z,24.00
2019-05-23T15:35:45.996Z,24.41
2019-05-23T15:38:20.287Z,24.33
2019-05-23T15:40:48.228Z,24.33
2019-05-23T15:43:18.404Z,24.00
2019-05-23T15:45:49.927Z,24.02
2019-05-23T15:48:23.070Z,24.27
2019-05-23T15:50:53.337Z,24.61
2019-05-23T15:53:56.344Z,24.83
2019-05-23T15:57:01.631Z,25.06
2019-05-23T15:59:46.331Z,25.20
2019-05-23T16:02:23.173Z,25.44
2019-05-23T16:05:00.051Z,25.78
2019-05-23T16:07:33.367Z,25.55
2019-05-23T16:10:05.630Z,25.24
2019-05-23T16:12:39.070Z,24.79
2019-05-23T16:15:09.731Z,24.80
2019-05-23T16:17:40.122Z,25.60
2019-05-23T16:20:13.831Z,25.39
2019-05-23T16:22:46.921Z,25.46
2019-05-23T16:25:18.087Z,25.96
2019-05-23T16:27:54.708Z,26.17
2019-05-23T16:30:28.818Z,26.49
2019-05-23T16:33:00.510Z,26.65
2019-05-23T16:35:33.830Z,25.94
2019-05-23T16:38:07.283Z,25.72
2019-05-23T16:40:37.763Z,25.99
2019-05-23T16:43:11.463Z,26.01
2019-05-23T16:45:41.830Z,25.80
2019-05-23T16:48:14.043Z,25.82
2019-05-23T16:50:44.466Z,25.92
2019-05-23T16:53:20.425Z,25.74
2019-05-23T16:56:00.221Z,25.90
2019-05-23T16:58:48.266Z,25.85
2019-05-23T17:01:27.214Z,25.96
2019-05-23T17:04:10.427Z,25.83
2019-05-23T17:06:46.781Z,25.61
2019-05-23T17:09:35.480Z,25.89
2019-05-23T17:12:34.174Z,25.90
2019-05-23T17:15:12.413Z,25.81
2019-05-23T17:18:02.827Z,25.77
2019-05-23T17:20:51.629Z,25.68
2019-05-23T17:23:37.563Z,25.45
2019-05-23T17:26:14.450Z,25.33
2019-05-23T17:28:48.512Z,25.29
2019-05-23T17:31:20.419Z,25.31
2019-05-23T17:33:51.567Z,25.48
2019-05-23T17:36:22.496Z,25.58
2019-05-23T17:38:53.074Z,25.27
2019-05-23T17:41:24.043Z,24.89
2019-05-23T17:43:55.598Z,24.67
2019-05-23T17:46:28.853Z,24.43
2019-05-23T17:49:00.654Z,24.23
2019-05-23T17:51:30.947Z,24.01
2019-05-23T17:54:02.446Z,23.79
2019-05-23T17:56:34.324Z,23.67
2019-05-23T17:59:04.611Z,23.64
2019-05-23T18:01:40.778Z,23.55
2019-05-23T18:04:11.305Z,23.43
2019-05-23T18:06:41.582Z,23.28
2019-05-23T18:09:13.603Z,22.98
2019-05-23T18:11:44.128Z,22.88
2019-05-23T18:14:15.882Z,22.80
2019-05-23T18:16:46.484Z,22.70
2019-05-23T18:19:18.258Z,22.42
2019-05-23T18:21:48.931Z,22.31
2019-05-23T18:24:19.347Z,22.29
2019-05-23T18:26:51.986Z,22.18
2019-05-23T18:29:22.750Z,22.23
2019-05-23T18:31:53.234Z,22.16
2019-05-23T18:34:23.843Z,22.12
2019-05-23T18:36:56.541Z,22.10
2019-05-23T18:39:27.120Z,21.97
2019-05-23T18:42:00.931Z,21.82
2019-05-23T18:44:35.983Z,21.63
2019-05-23T18:47:10.833Z,21.42
2019-05-23T18:49:41.096Z,21.29
2019-05-23T18:52:12.008Z,21.12
2019-05-23T18:54:45.413Z,20.95
2019-05-23T18:57:16.024Z,20.77
2019-05-23T18:59:48.824Z,20.61
2019-05-23T19:02:22.411Z,20.45
2019-05-23T19:04:53.399Z,20.30
2019-05-23T19:07:25.108Z,20.17
2019-05-23T19:09:55.937Z,20.03
2019-05-23T19:12:29.380Z,19.85
2019-05-23T19:14:59.833Z,19.70
2019-05-23T19:17:30.228Z,19.54
2019-05-23T19:20:00.543Z,19.38
2019-05-23T19:22:30.988Z,19.24
2019-05-23T19:25:05.909Z,19.08
2019-05-23T19:27:37.049Z,18.96
2019-05-23T19:30:08.372Z,18.85
2019-05-23T19:32:38.794Z,18.76
2019-05-23T19:35:15.241Z,18.64
2019-05-23T19:37:45.825Z,18.52
2019-05-23T19:40:20.548Z,18.40
2019-05-23T19:42:49.768Z,18.29
2019-05-23T19:45:21.529Z,18.16
2019-05-23T19:47:56.313Z,18.05
2019-05-23T19:50:28.380Z,17.93
2019-05-23T19:52:58.718Z,17.81
2019-05-23T19:55:31.822Z,17.72
2019-05-23T19:58:02.241Z,17.63
2019-05-23T20:00:33.847Z,17.53
2019-05-23T20:03:04.731Z,17.46
2019-05-23T20:05:37.199Z,17.38
2019-05-23T20:08:09.177Z,17.29
2019-05-23T20:10:39.609Z,17.22
2019-05-23T20:13:09.843Z,17.17
2019-05-23T20:15:40.093Z,17.11
2019-05-23T20:18:11.348Z,17.06
2019-05-23T20:20:41.757Z,17.00
2019-05-23T20:23:15.806Z,16.94
2019-05-23T20:25:44.686Z,16.86
2019-05-23T20:28:15.297Z,16.79
2019-05-23T20:30:57.290Z,16.73
2019-05-23T20:33:27.945Z,16.66
2019-05-23T20:36:03.524Z,16.60
2019-05-23T20:38:34.046Z,16.56
2019-05-23T20:41:04.469Z,16.46
2019-05-23T20:43:36.790Z,16.40
2019-05-23T20:46:06.948Z,16.35
2019-05-23T20:48:38.450Z,16.32
2019-05-23T20:51:08.817Z,16.24
2019-05-23T20:53:39.129Z,16.20
2019-05-23T20:56:10.497Z,16.16
2019-05-23T20:58:40.705Z,16.12
2019-05-23T21:01:21.740Z,16.07
2019-05-23T21:03:54.550Z,15.99
2019-05-23T21:06:24.822Z,15.91
2019-05-23T21:08:55.025Z,15.86
2019-05-23T21:11:25.313Z,15.79
2019-05-23T21:13:55.597Z,15.76
2019-05-23T21:16:25.837Z,15.70
2019-05-23T21:18:56.084Z,15.67
2019-05-23T21:21:26.302Z,15.63
2019-05-23T21:23:57.166Z,15.61
2019-05-23T21:26:27.581Z,15.58
2019-05-23T21:28:59.028Z,15.56
2019-05-23T21:31:30.203Z,15.54
2019-05-23T21:34:00.431Z,15.50
2019-05-23T21:36:31.892Z,15.47
2019-05-23T21:39:02.095Z,15.42
2019-05-23T21:41:33.575Z,15.39
2019-05-23T21:44:05.647Z,15.34
2019-05-23T21:46:40.186Z,15.32
2019-05-23T21:49:10.475Z,15.30
2019-05-23T21:51:40.662Z,15.28
2019-05-23T21:54:10.800Z,15.24
2019-05-23T21:56:42.078Z,15.23
2019-05-23T21:59:12.309Z,15.19
2019-05-23T22:01:58.322Z,15.14
2019-05-23T22:04:31.806Z,15.08
2019-05-23T22:07:03.637Z,15.04
2019-05-23T22:09:33.915Z,15.00
2019-05-23T22:12:06.431Z,14.97
2019-05-23T22:14:37.331Z,14.95
2019-05-23T22:17:13.191Z,14.91
2019-05-23T22:19:51.400Z,14.89
2019-05-23T22:22:21.731Z,14.84
2019-05-23T22:24:52.112Z,14.82
2019-05-23T22:27:22.822Z,14.78
2019-05-23T22:29:52.950Z,14.72
2019-05-23T22:32:25.942Z,14.71
2019-05-23T22:35:02.459Z,14.67
2019-05-23T22:37:32.673Z,14.60
2019-05-23T22:40:04.055Z,14.57
2019-05-23T22:42:36.569Z,14.54
2019-05-23T22:45:10.741Z,14.48
2019-05-23T22:47:41.007Z,14.44
2019-05-23T22:50:12.943Z,14.40
2019-05-23T22:52:43.052Z,14.36
2019-05-23T22:55:13.177Z,14.32
2019-05-23T22:57:43.358Z,14.29
2019-05-23T23:00:15.269Z,14.25
2019-05-23T23:02:46.234Z,14.20
2019-05-23T23:05:16.483Z,14.17
2019-05-23T23:07:46.578Z,14.10
2019-05-23T23:10:16.822Z,14.07
2019-05-23T23:12:47.015Z,14.04
2019-05-23T23:15:17.406Z,13.97
2019-05-23T23:17:47.566Z,13.93
2019-05-23T23:20:17.810Z,13.90
2019-05-23T23:22:47.923Z,13.85
2019-05-23T23:25:18.089Z,13.81
2019-05-23T23:27:48.255Z,13.78
2019-05-23T23:30:20.487Z,13.75
2019-05-23T23:32:50.583Z,13.69
2019-05-23T23:35:21.141Z,13.65
2019-05-23T23:37:51.265Z,13.62
2019-05-23T23:40:21.462Z,13.57
2019-05-23T23:42:51.805Z,13.54
2019-05-23T23:45:40.870Z,13.51
2019-05-23T23:48:29.197Z,13.51
2019-05-23T23:51:17.244Z,13.48
2019-05-23T23:54:04.968Z,13.46
2019-05-23T23:56:53.481Z,13.41
2019-05-23T23:59:22.799Z,13.37
